Terminal Aerodrome Forecast
Issued by NWS

Home | Current Version | Previous Version | Graphics & Text | Print | Product List | Glossary Off
Versions: 1 2 3 4 5 6 7 8 9 10 11 12

000
FTUS43 KICT 241120
TAFSLN
TAF
KSLN 241120Z 2412/2512 20009KT P6SM SCT250
     FM241700 26013KT P6SM BKN250
     FM242000 32014G22KT P6SM BKN250
     FM250200 36013KT P6SM SCT150 BKN200=

USA.gov is the U.S. government's official web portal to all federal, state and local government web resources and services.